ExpreSS Pegasus — SYDV — position and weather

sailwx.info

Track history (hours):
 
Tides and Currents Weather Stations Pressure Air Temp Water Temp Dewpoint Dewpoint Depression Visibility Wind Speed Wind Dir Waves Ship Positions

ExpreSS Pegasus

Last reported at 2017-Dec-16 16:54 UTC. Time now 2017-Dec-17 02:33 UTC.
Position N 40°56' E 024°25'.

Length 126 m; draft 5.5 m.

Type: Ship (hazmat cat B). MMSI: 237095000.

Date/timePositionNaut miles runAvg speedWind from/ knotsBaromVisibWave heightAir tempDewpointWater temp
2017-Dec-16 16:54N 40°56' E 024°25'0 0.0
2017-Dec-16 16:27N 40°56' E 024°25'0 0.0
2017-Dec-16 15:51N 40°56' E 024°25'0 0.0
2017-Dec-16 15:21N 40°56' E 024°25'0 0.0
2017-Dec-16 14:18N 40°56' E 024°25'0 0.0
2017-Dec-16 14:00N 40°56' E 024°25'0 0.0
2017-Dec-16 13:30N 40°56' E 024°25'0 0.0
2017-Dec-16 12:48N 40°56' E 024°25'0 0.0
2017-Dec-16 12:24N 40°56' E 024°25'0 0.0
2017-Dec-16 11:54N 40°56' E 024°25'0 0.0
2017-Dec-16 11:24N 40°56' E 024°25'0 0.0
2017-Dec-16 11:00N 40°56' E 024°25'0 0.0
2017-Dec-16 10:30N 40°56' E 024°25'0 0.0
2017-Dec-16 10:00N 40°56' E 024°25'0 0.0
2017-Dec-16 09:30N 40°56' E 024°25'0 0.0
2017-Dec-16 08:54N 40°56' E 024°25'0 0.0
2017-Dec-16 08:30N 40°56' E 024°25'0 0.0
2017-Dec-16 07:54N 40°56' E 024°25'0 0.0
2017-Dec-16 07:30N 40°56' E 024°25'0 0.0
2017-Dec-16 07:00N 40°56' E 024°25'0 0.0
2017-Dec-16 06:24N 40°56' E 024°25'0 0.0
2017-Dec-16 05:54N 40°56' E 024°25'0 0.0
2017-Dec-16 03:54N 40°56' E 024°25'0 0.3
2017-Dec-16 03:30N 40°56' E 024°25'815.1
2017-Dec-16 03:00N 40°48' E 024°26'816.2
2017-Dec-16 02:30N 40°41' E 024°28'816.3
2017-Dec-16 02:00N 40°33' E 024°32'816.3
2017-Dec-16 01:30N 40°26' E 024°37'916.5
2017-Dec-16 00:59N 40°18' E 024°42'2916.5
2017-Dec-15 23:15N 39°52' E 024°58'3 8.9
2017-Dec-15 22:57N 39°52' E 025°02'1 0.8
2017-Dec-15 21:43N 39°52' E 025°03'514.5
2017-Dec-15 21:21N 39°47' E 025°01'11516.0
2017-Dec-15 14:12N 37°55' E 024°32'316.4
2017-Dec-15 14:00N 37°54' E 024°29'916.6
2017-Dec-15 13:27N 37°50' E 024°18'816.5
2017-Dec-15 12:59N 37°47' E 024°09'5 0.6
2017-Dec-15 04:44N 37°43' E 024°06'416.2
2017-Dec-15 04:30N 37°47' E 024°08'816.5
2017-Dec-15 03:59N 37°50' E 024°18'12713.4
2017-Dec-14 18:29N 39°52' E 025°03'915.0
2017-Dec-14 17:52N 40°00' E 024°56'616.1
2017-Dec-14 17:30N 40°05' E 024°53'816.2
2017-Dec-14 17:00N 40°12' E 024°47'816.8
2017-Dec-14 16:30N 40°20' E 024°42'816.8
2017-Dec-14 16:00N 40°27' E 024°37'1616.2
2017-Dec-14 15:01N 40°42' E 024°28'816.2
2017-Dec-14 14:30N 40°50' E 024°26'612.6
2017-Dec-14 14:00N 40°56' E 024°25'0 0.0
2017-Dec-14 13:30N 40°56' E 024°25'0 0.0
2017-Dec-14 13:00N 40°56' E 024°25'0 0.0
2017-Dec-14 11:30N 40°56' E 024°25'0 0.0
2017-Dec-14 11:00N 40°56' E 024°25'0 0.2
2017-Dec-14 10:31N 40°56' E 024°25'815.1
2017-Dec-14 10:00N 40°48' E 024°26'816.3
2017-Dec-14 09:30N 40°40' E 024°28'816.3
2017-Dec-14 09:00N 40°33' E 024°32'816.2
2017-Dec-14 08:30N 40°26' E 024°37'816.4
2017-Dec-14 08:00N 40°18' E 024°43'1116.4
2017-Dec-14 07:20N 40°09' E 024°50'20 6.4
2017-Dec-14 04:17N 39°52' E 025°03'514.0
2017-Dec-14 03:54N 39°47' E 025°01'11016.0
2017-Dec-13 21:02N 37°60' E 024°36'117.2
2017-Dec-13 21:00N 37°59' E 024°35'815.9
2017-Dec-13 20:30N 37°54' E 024°28'816.4
2017-Dec-13 20:01N 37°50' E 024°19'816.6
2017-Dec-13 19:30N 37°47' E 024°09'6 4.3
2017-Dec-13 18:08N 37°43' E 024°04'0 0.0
2017-Dec-13 17:05N 37°43' E 024°04'0 0.0
2017-Dec-13 16:56N 37°43' E 024°04'0 0.0
2017-Dec-13 16:29N 37°43' E 024°04'0 0.0
2017-Dec-13 15:59N 37°43' E 024°04'0 0.0
2017-Dec-13 15:29N 37°43' E 024°04'0 0.0
2017-Dec-13 14:59N 37°43' E 024°04'0 0.0
2017-Dec-13 09:02N 37°43' E 024°04'0 0.0
2017-Dec-13 08:47N 37°43' E 024°04'0 0.0
2017-Dec-13 08:29N 37°43' E 024°04'0 0.0
2017-Dec-13 07:59N 37°43' E 024°04'0 0.0
2017-Dec-13 07:23N 37°43' E 024°04'0 0.0
2017-Dec-13 06:50N 37°43' E 024°04'0 0.0
2017-Dec-13 06:17N 37°43' E 024°04'0 0.0
2017-Dec-13 05:56N 37°43' E 024°04'0 0.0
2017-Dec-13 05:05N 37°43' E 024°04'0 0.0
2017-Dec-13 05:00N 37°43' E 024°04'5 8.1
2017-Dec-13 04:26N 37°46' E 024°07'716.6
2017-Dec-13 04:00N 37°49' E 024°16'816.6
2017-Dec-13 03:30N 37°52' E 024°25'816.0
2017-Dec-13 03:00N 37°56' E 024°34'9816.5
2017-Dec-12 21:03N 39°32' E 024°58'1 2.7
2017-Dec-12 20:49N 39°33' E 024°59'1416.5
2017-Dec-12 19:57N 39°47' E 025°01'5 3.7
2017-Dec-12 18:28N 39°52' E 025°03'715.1
2017-Dec-12 18:00N 39°58' E 024°58'816.2
2017-Dec-12 17:30N 40°05' E 024°53'816.3
2017-Dec-12 17:00N 40°12' E 024°47'816.8
2017-Dec-12 16:30N 40°20' E 024°42'917.2
2017-Dec-12 16:00N 40°27' E 024°36'816.6
2017-Dec-12 15:30N 40°34' E 024°31'816.0
2017-Dec-12 15:00N 40°42' E 024°28'816.3
2017-Dec-12 14:30N 40°50' E 024°26'6 1.6
2017-Dec-12 10:39N 40°56' E 024°25'0 0.3
2017-Dec-12 10:30N 40°56' E 024°25'612.9
2017-Dec-12 10:00N 40°50' E 024°26'816.5
2017-Dec-12 09:30N 40°41' E 024°29'816.5
2017-Dec-12 09:00N 40°34' E 024°32'816.5
2017-Dec-12 08:30N 40°26' E 024°36'816.6
2017-Dec-12 08:00N 40°19' E 024°42'916.5
2017-Dec-12 07:27N 40°11' E 024°48'2116.3
2017-Dec-12 06:09N 39°53' E 025°02'1 0.7
2017-Dec-12 04:18N 39°52' E 025°03'413.8
2017-Dec-12 04:00N 39°49' E 024°60'11615.9
2017-Dec-11 20:44N 37°55' E 024°33'416.3
2017-Dec-11 20:30N 37°54' E 024°28'916.3
2017-Dec-11 19:56N 37°50' E 024°18'716.1
2017-Dec-11 19:29N 37°47' E 024°09'6 0.5
2017-Dec-11 06:44N 37°43' E 024°04'0 0.1
2017-Dec-11 04:53N 37°43' E 024°04'511.8
2017-Dec-11 04:29N 37°46' E 024°08'916.7
2017-Dec-11 03:58N 37°50' E 024°18'816.7
2017-Dec-11 03:31N 37°53' E 024°27'816.2
2017-Dec-11 03:00N 37°57' E 024°35'12113.6
2017-Dec-10 18:06N 39°57' E 024°58'816.1
2017-Dec-10 17:37N 40°04' E 024°53'216.1
2017-Dec-10 17:30N 40°06' E 024°52'816.1
2017-Dec-10 17:00N 40°13' E 024°47'816.2
2017-Dec-10 16:30N 40°19' E 024°41'816.3
2017-Dec-10 16:00N 40°26' E 024°35'816.8
2017-Dec-10 15:30N 40°33' E 024°29'917.0
2017-Dec-10 15:00N 40°42' E 024°28'816.6
2017-Dec-10 14:30N 40°50' E 024°26'6 5.5
2017-Dec-10 13:23N 40°56' E 024°25'0 0.0
2017-Dec-10 12:35N 40°56' E 024°25'0 0.0
2017-Dec-10 11:32N 40°56' E 024°25'0 0.1
2017-Dec-10 11:29N 40°56' E 024°25'0 0.0
2017-Dec-10 10:53N 40°56' E 024°25'0 0.0
2017-Dec-10 10:23N 40°56' E 024°25'0 0.0
2017-Dec-10 09:41N 40°56' E 024°25'0 0.0
2017-Dec-10 09:23N 40°56' E 024°25'0 0.0
2017-Dec-10 08:53N 40°56' E 024°25'0 0.0
2017-Dec-10 06:47N 40°56' E 024°25'0 0.0
2017-Dec-10 06:23N 40°56' E 024°25'0 0.0
2017-Dec-10 05:11N 40°56' E 024°25'0 0.0
2017-Dec-10 02:26N 40°56' E 024°25'0 0.0
2017-Dec-09 23:26N 40°56' E 024°25'0 0.0
2017-Dec-09 09:29N 40°56' E 024°25'0 0.0
2017-Dec-09 08:59N 40°56' E 024°25'0 0.0
2017-Dec-09 08:29N 40°56' E 024°25'0 0.0
2017-Dec-09 07:47N 40°56' E 024°25'0 0.0
2017-Dec-09 07:29N 40°56' E 024°25'0 0.0
2017-Dec-09 06:35N 40°56' E 024°25'0 0.0
2017-Dec-09 06:29N 40°56' E 024°25'0 0.0
2017-Dec-09 05:11N 40°56' E 024°25'0 0.0
2017-Dec-09 04:59N 40°56' E 024°25'0 0.0
2017-Dec-09 04:23N 40°56' E 024°25'0 0.0
2017-Dec-09 03:53N 40°56' E 024°25'0 0.0
2017-Dec-09 03:26N 40°56' E 024°25'2 5.4
2017-Dec-09 03:00N 40°54' E 024°24'816.6
2017-Dec-09 02:30N 40°46' E 024°27'816.5
2017-Dec-09 02:00N 40°37' E 024°29'816.8
2017-Dec-09 01:30N 40°30' E 024°34'816.9
2017-Dec-09 01:00N 40°23' E 024°39'816.5
2017-Dec-09 00:30N 40°15' E 024°45'816.3
2017-Dec-09 00:00N 40°08' E 024°50'1816.6
2017-Dec-08 22:56N 39°53' E 025°02'1 1.0
2017-Dec-08 21:42N 39°52' E 025°03'615.3
2017-Dec-08 21:20N 39°47' E 025°01'8716.0
2017-Dec-08 15:54N 38°22' E 024°41'2716.8
2017-Dec-08 14:18N 37°55' E 024°34'516.4
2017-Dec-08 14:00N 37°53' E 024°28'916.5
2017-Dec-08 13:29N 37°50' E 024°18'816.8
2017-Dec-08 13:00N 37°47' E 024°09'6 3.5
2017-Dec-08 11:23N 37°43' E 024°04'0 0.0
2017-Dec-08 10:11N 37°43' E 024°04'0 0.0
2017-Dec-08 09:53N 37°43' E 024°04'0 0.0
2017-Dec-08 09:23N 37°43' E 024°04'0 0.0
2017-Dec-08 08:56N 37°43' E 024°04'0 0.0
2017-Dec-08 08:23N 37°43' E 024°04'0 0.0
2017-Dec-08 08:00N 37°43' E 024°04'0 0.0
2017-Dec-08 07:30N 37°43' E 024°04'0 0.0
2017-Dec-08 07:00N 37°43' E 024°04'0 0.0
2017-Dec-08 06:30N 37°43' E 024°04'0 0.0
2017-Dec-08 05:59N 37°43' E 024°04'0 0.0
2017-Dec-08 05:30N 37°43' E 024°04'0 0.0
2017-Dec-08 05:00N 37°43' E 024°04'5 8.9
2017-Dec-08 04:29N 37°46' E 024°08'816.6
2017-Dec-08 04:00N 37°50' E 024°17'817.0
2017-Dec-08 03:30N 37°53' E 024°27'816.3
2017-Dec-08 03:00N 37°58' E 024°35'1816.4
2017-Dec-08 01:54N 38°15' E 024°40'9915.7
2017-Dec-07 19:36N 39°52' E 025°03'0 0.1
2017-Dec-07 18:24N 39°52' E 025°03'615.5
2017-Dec-07 18:01N 39°57' E 024°58'916.4
2017-Dec-07 17:27N 40°05' E 024°52'716.8
2017-Dec-07 17:00N 40°11' E 024°47'917.1
2017-Dec-07 16:29N 40°19' E 024°42'816.8
2017-Dec-07 16:00N 40°26' E 024°36'816.9
2017-Dec-07 15:30N 40°34' E 024°32'816.8
2017-Dec-07 15:00N 40°42' E 024°28'816.6
2017-Dec-07 14:30N 40°50' E 024°26'610.1
2017-Dec-07 13:55N 40°56' E 024°25'0 0.0
2017-Dec-07 13:28N 40°56' E 024°25'0 0.0
2017-Dec-07 12:49N 40°56' E 024°25'0 0.0
2017-Dec-07 12:25N 40°56' E 024°25'0 0.0
2017-Dec-07 11:55N 40°56' E 024°25'0 0.0
2017-Dec-07 11:25N 40°56' E 024°25'0 0.0
2017-Dec-07 10:55N 40°56' E 024°25'0 0.2
2017-Dec-07 10:31N 40°56' E 024°25'713.8
2017-Dec-07 10:00N 40°49' E 024°26'816.6
2017-Dec-07 09:30N 40°41' E 024°28'816.5
2017-Dec-07 09:00N 40°33' E 024°33'916.4
2017-Dec-07 08:29N 40°26' E 024°38'816.1
2017-Dec-07 07:59N 40°19' E 024°43'816.3
2017-Dec-07 07:30N 40°12' E 024°47'23 7.2
2017-Dec-07 04:20N 39°52' E 025°03'12115.6
2017-Dec-06 20:36N 37°54' E 024°30'  
Track history (hours):
 
Tides and Currents Weather Stations Pressure Air Temp Water Temp Dewpoint Dewpoint Depression Visibility Wind Speed Wind Dir Waves Ship Positions

ExpreSS Pegasus

Last reported at 2017-Dec-16 16:54 UTC. Time now 2017-Dec-17 02:33 UTC.
Position N 40°56' E 024°25'.

Length 126 m; draft 5.5 m.

Type: Ship (hazmat cat B). MMSI: 237095000.

Date/timePositionNaut miles runAvg speedWind from/ knotsBaromVisibWave heightAir tempDewpointWater temp
2017-Dec-16 16:54N 40°56' E 024°25'0 0.0
2017-Dec-16 16:27N 40°56' E 024°25'0 0.0
2017-Dec-16 15:51N 40°56' E 024°25'0 0.0
2017-Dec-16 15:21N 40°56' E 024°25'0 0.0
2017-Dec-16 14:18N 40°56' E 024°25'0 0.0
2017-Dec-16 14:00N 40°56' E 024°25'0 0.0
2017-Dec-16 13:30N 40°56' E 024°25'0 0.0
2017-Dec-16 12:48N 40°56' E 024°25'0 0.0
2017-Dec-16 12:24N 40°56' E 024°25'0 0.0
2017-Dec-16 11:54N 40°56' E 024°25'0 0.0
2017-Dec-16 11:24N 40°56' E 024°25'0 0.0
2017-Dec-16 11:00N 40°56' E 024°25'0 0.0
2017-Dec-16 10:30N 40°56' E 024°25'0 0.0
2017-Dec-16 10:00N 40°56' E 024°25'0 0.0
2017-Dec-16 09:30N 40°56' E 024°25'0 0.0
2017-Dec-16 08:54N 40°56' E 024°25'0 0.0
2017-Dec-16 08:30N 40°56' E 024°25'0 0.0
2017-Dec-16 07:54N 40°56' E 024°25'0 0.0
2017-Dec-16 07:30N 40°56' E 024°25'0 0.0
2017-Dec-16 07:00N 40°56' E 024°25'0 0.0
2017-Dec-16 06:24N 40°56' E 024°25'0 0.0
2017-Dec-16 05:54N 40°56' E 024°25'0 0.0
2017-Dec-16 03:54N 40°56' E 024°25'0 0.3
2017-Dec-16 03:30N 40°56' E 024°25'815.1
2017-Dec-16 03:00N 40°48' E 024°26'816.2
2017-Dec-16 02:30N 40°41' E 024°28'816.3
2017-Dec-16 02:00N 40°33' E 024°32'816.3
2017-Dec-16 01:30N 40°26' E 024°37'916.5
2017-Dec-16 00:59N 40°18' E 024°42'2916.5
2017-Dec-15 23:15N 39°52' E 024°58'3 8.9
2017-Dec-15 22:57N 39°52' E 025°02'1 0.8
2017-Dec-15 21:43N 39°52' E 025°03'514.5
2017-Dec-15 21:21N 39°47' E 025°01'11516.0
2017-Dec-15 14:12N 37°55' E 024°32'316.4
2017-Dec-15 14:00N 37°54' E 024°29'916.6
2017-Dec-15 13:27N 37°50' E 024°18'816.5
2017-Dec-15 12:59N 37°47' E 024°09'5 0.6
2017-Dec-15 04:44N 37°43' E 024°06'416.2
2017-Dec-15 04:30N 37°47' E 024°08'816.5
2017-Dec-15 03:59N 37°50' E 024°18'12713.4
2017-Dec-14 18:29N 39°52' E 025°03'915.0
2017-Dec-14 17:52N 40°00' E 024°56'616.1
2017-Dec-14 17:30N 40°05' E 024°53'816.2
2017-Dec-14 17:00N 40°12' E 024°47'816.8
2017-Dec-14 16:30N 40°20' E 024°42'816.8
2017-Dec-14 16:00N 40°27' E 024°37'1616.2
2017-Dec-14 15:01N 40°42' E 024°28'816.2
2017-Dec-14 14:30N 40°50' E 024°26'612.6
2017-Dec-14 14:00N 40°56' E 024°25'0 0.0
2017-Dec-14 13:30N 40°56' E 024°25'0 0.0
2017-Dec-14 13:00N 40°56' E 024°25'0 0.0
2017-Dec-14 11:30N 40°56' E 024°25'0 0.0
2017-Dec-14 11:00N 40°56' E 024°25'0 0.2
2017-Dec-14 10:31N 40°56' E 024°25'815.1
2017-Dec-14 10:00N 40°48' E 024°26'816.3
2017-Dec-14 09:30N 40°40' E 024°28'816.3
2017-Dec-14 09:00N 40°33' E 024°32'816.2
2017-Dec-14 08:30N 40°26' E 024°37'816.4
2017-Dec-14 08:00N 40°18' E 024°43'1116.4
2017-Dec-14 07:20N 40°09' E 024°50'20 6.4
2017-Dec-14 04:17N 39°52' E 025°03'514.0
2017-Dec-14 03:54N 39°47' E 025°01'11016.0
2017-Dec-13 21:02N 37°60' E 024°36'117.2
2017-Dec-13 21:00N 37°59' E 024°35'815.9
2017-Dec-13 20:30N 37°54' E 024°28'816.4
2017-Dec-13 20:01N 37°50' E 024°19'816.6
2017-Dec-13 19:30N 37°47' E 024°09'6 4.3
2017-Dec-13 18:08N 37°43' E 024°04'0 0.0
2017-Dec-13 17:05N 37°43' E 024°04'0 0.0
2017-Dec-13 16:56N 37°43' E 024°04'0 0.0
2017-Dec-13 16:29N 37°43' E 024°04'0 0.0
2017-Dec-13 15:59N 37°43' E 024°04'0 0.0
2017-Dec-13 15:29N 37°43' E 024°04'0 0.0
2017-Dec-13 14:59N 37°43' E 024°04'0 0.0
2017-Dec-13 09:02N 37°43' E 024°04'0 0.0
2017-Dec-13 08:47N 37°43' E 024°04'0 0.0
2017-Dec-13 08:29N 37°43' E 024°04'0 0.0
2017-Dec-13 07:59N 37°43' E 024°04'0 0.0
2017-Dec-13 07:23N 37°43' E 024°04'0 0.0
2017-Dec-13 06:50N 37°43' E 024°04'0 0.0
2017-Dec-13 06:17N 37°43' E 024°04'0 0.0
2017-Dec-13 05:56N 37°43' E 024°04'0 0.0
2017-Dec-13 05:05N 37°43' E 024°04'0 0.0
2017-Dec-13 05:00N 37°43' E 024°04'5 8.1
2017-Dec-13 04:26N 37°46' E 024°07'716.6
2017-Dec-13 04:00N 37°49' E 024°16'816.6
2017-Dec-13 03:30N 37°52' E 024°25'816.0
2017-Dec-13 03:00N 37°56' E 024°34'9816.5
2017-Dec-12 21:03N 39°32' E 024°58'1 2.7
2017-Dec-12 20:49N 39°33' E 024°59'1416.5
2017-Dec-12 19:57N 39°47' E 025°01'5 3.7
2017-Dec-12 18:28N 39°52' E 025°03'715.1
2017-Dec-12 18:00N 39°58' E 024°58'816.2
2017-Dec-12 17:30N 40°05' E 024°53'816.3
2017-Dec-12 17:00N 40°12' E 024°47'816.8
2017-Dec-12 16:30N 40°20' E 024°42'917.2
2017-Dec-12 16:00N 40°27' E 024°36'816.6
2017-Dec-12 15:30N 40°34' E 024°31'816.0
2017-Dec-12 15:00N 40°42' E 024°28'816.3
2017-Dec-12 14:30N 40°50' E 024°26'6 1.6
2017-Dec-12 10:39N 40°56' E 024°25'0 0.3
2017-Dec-12 10:30N 40°56' E 024°25'612.9
2017-Dec-12 10:00N 40°50' E 024°26'816.5
2017-Dec-12 09:30N 40°41' E 024°29'816.5
2017-Dec-12 09:00N 40°34' E 024°32'816.5
2017-Dec-12 08:30N 40°26' E 024°36'816.6
2017-Dec-12 08:00N 40°19' E 024°42'916.5
2017-Dec-12 07:27N 40°11' E 024°48'2116.3
2017-Dec-12 06:09N 39°53' E 025°02'1 0.7
2017-Dec-12 04:18N 39°52' E 025°03'413.8
2017-Dec-12 04:00N 39°49' E 024°60'11615.9
2017-Dec-11 20:44N 37°55' E 024°33'416.3
2017-Dec-11 20:30N 37°54' E 024°28'916.3
2017-Dec-11 19:56N 37°50' E 024°18'716.1
2017-Dec-11 19:29N 37°47' E 024°09'6 0.5
2017-Dec-11 06:44N 37°43' E 024°04'0 0.1
2017-Dec-11 04:53N 37°43' E 024°04'511.8
2017-Dec-11 04:29N 37°46' E 024°08'916.7
2017-Dec-11 03:58N 37°50' E 024°18'816.7
2017-Dec-11 03:31N 37°53' E 024°27'816.2
2017-Dec-11 03:00N 37°57' E 024°35'12113.6
2017-Dec-10 18:06N 39°57' E 024°58'816.1
2017-Dec-10 17:37N 40°04' E 024°53'216.1
2017-Dec-10 17:30N 40°06' E 024°52'816.1
2017-Dec-10 17:00N 40°13' E 024°47'816.2
2017-Dec-10 16:30N 40°19' E 024°41'816.3
2017-Dec-10 16:00N 40°26' E 024°35'816.8
2017-Dec-10 15:30N 40°33' E 024°29'917.0
2017-Dec-10 15:00N 40°42' E 024°28'816.6
2017-Dec-10 14:30N 40°50' E 024°26'6 5.5
2017-Dec-10 13:23N 40°56' E 024°25'0 0.0
2017-Dec-10 12:35N 40°56' E 024°25'0 0.0
2017-Dec-10 11:32N 40°56' E 024°25'0 0.1
2017-Dec-10 11:29N 40°56' E 024°25'0 0.0
2017-Dec-10 10:53N 40°56' E 024°25'0 0.0
2017-Dec-10 10:23N 40°56' E 024°25'0 0.0
2017-Dec-10 09:41N 40°56' E 024°25'0 0.0
2017-Dec-10 09:23N 40°56' E 024°25'0 0.0
2017-Dec-10 08:53N 40°56' E 024°25'0 0.0
2017-Dec-10 06:47N 40°56' E 024°25'0 0.0
2017-Dec-10 06:23N 40°56' E 024°25'0 0.0
2017-Dec-10 05:11N 40°56' E 024°25'0 0.0
2017-Dec-10 02:26N 40°56' E 024°25'0 0.0
2017-Dec-09 23:26N 40°56' E 024°25'0 0.0
2017-Dec-09 09:29N 40°56' E 024°25'0 0.0
2017-Dec-09 08:59N 40°56' E 024°25'0 0.0
2017-Dec-09 08:29N 40°56' E 024°25'0 0.0
2017-Dec-09 07:47N 40°56' E 024°25'0 0.0
2017-Dec-09 07:29N 40°56' E 024°25'0 0.0
2017-Dec-09 06:35N 40°56' E 024°25'0 0.0
2017-Dec-09 06:29N 40°56' E 024°25'0 0.0
2017-Dec-09 05:11N 40°56' E 024°25'0 0.0
2017-Dec-09 04:59N 40°56' E 024°25'0 0.0
2017-Dec-09 04:23N 40°56' E 024°25'0 0.0
2017-Dec-09 03:53N 40°56' E 024°25'0 0.0
2017-Dec-09 03:26N 40°56' E 024°25'2 5.4
2017-Dec-09 03:00N 40°54' E 024°24'816.6
2017-Dec-09 02:30N 40°46' E 024°27'816.5
2017-Dec-09 02:00N 40°37' E 024°29'816.8
2017-Dec-09 01:30N 40°30' E 024°34'816.9
2017-Dec-09 01:00N 40°23' E 024°39'816.5
2017-Dec-09 00:30N 40°15' E 024°45'816.3
2017-Dec-09 00:00N 40°08' E 024°50'1816.6
2017-Dec-08 22:56N 39°53' E 025°02'1 1.0
2017-Dec-08 21:42N 39°52' E 025°03'615.3
2017-Dec-08 21:20N 39°47' E 025°01'8716.0
2017-Dec-08 15:54N 38°22' E 024°41'2716.8
2017-Dec-08 14:18N 37°55' E 024°34'516.4
2017-Dec-08 14:00N 37°53' E 024°28'916.5
2017-Dec-08 13:29N 37°50' E 024°18'816.8
2017-Dec-08 13:00N 37°47' E 024°09'6 3.5
2017-Dec-08 11:23N 37°43' E 024°04'0 0.0
2017-Dec-08 10:11N 37°43' E 024°04'0 0.0
2017-Dec-08 09:53N 37°43' E 024°04'0 0.0
2017-Dec-08 09:23N 37°43' E 024°04'0 0.0
2017-Dec-08 08:56N 37°43' E 024°04'0 0.0
2017-Dec-08 08:23N 37°43' E 024°04'0 0.0
2017-Dec-08 08:00N 37°43' E 024°04'0 0.0
2017-Dec-08 07:30N 37°43' E 024°04'0 0.0
2017-Dec-08 07:00N 37°43' E 024°04'0 0.0
2017-Dec-08 06:30N 37°43' E 024°04'0 0.0
2017-Dec-08 05:59N 37°43' E 024°04'0 0.0
2017-Dec-08 05:30N 37°43' E 024°04'0 0.0
2017-Dec-08 05:00N 37°43' E 024°04'5 8.9
2017-Dec-08 04:29N 37°46' E 024°08'816.6
2017-Dec-08 04:00N 37°50' E 024°17'817.0
2017-Dec-08 03:30N 37°53' E 024°27'816.3
2017-Dec-08 03:00N 37°58' E 024°35'1816.4
2017-Dec-08 01:54N 38°15' E 024°40'9915.7
2017-Dec-07 19:36N 39°52' E 025°03'0 0.1
2017-Dec-07 18:24N 39°52' E 025°03'615.5
2017-Dec-07 18:01N 39°57' E 024°58'916.4
2017-Dec-07 17:27N 40°05' E 024°52'716.8
2017-Dec-07 17:00N 40°11' E 024°47'917.1
2017-Dec-07 16:29N 40°19' E 024°42'816.8
2017-Dec-07 16:00N 40°26' E 024°36'816.9
2017-Dec-07 15:30N 40°34' E 024°32'816.8
2017-Dec-07 15:00N 40°42' E 024°28'816.6
2017-Dec-07 14:30N 40°50' E 024°26'610.1
2017-Dec-07 13:55N 40°56' E 024°25'0 0.0
2017-Dec-07 13:28N 40°56' E 024°25'0 0.0
2017-Dec-07 12:49N 40°56' E 024°25'0 0.0
2017-Dec-07 12:25N 40°56' E 024°25'0 0.0
2017-Dec-07 11:55N 40°56' E 024°25'0 0.0
2017-Dec-07 11:25N 40°56' E 024°25'0 0.0
2017-Dec-07 10:55N 40°56' E 024°25'0 0.2
2017-Dec-07 10:31N 40°56' E 024°25'713.8
2017-Dec-07 10:00N 40°49' E 024°26'816.6
2017-Dec-07 09:30N 40°41' E 024°28'816.5
2017-Dec-07 09:00N 40°33' E 024°33'916.4
2017-Dec-07 08:29N 40°26' E 024°38'816.1
2017-Dec-07 07:59N 40°19' E 024°43'816.3
2017-Dec-07 07:30N 40°12' E 024°47'23 7.2
2017-Dec-07 04:20N 39°52' E 025°03'12115.6
2017-Dec-06 20:36N 37°54' E 024°30'  

Dump ship's entire track history